Time;durP1;ratioP1;P1;durP2;ratioP2;P2;SDS_P1;SDS_P2;PMS_P1;PMS_P2;Temp;Humidity;BMP_temperature;BMP_pressure;BME280_temperature;BME280_humidity;BME280_pressure;Samples;Min_cycle;Max_cycle;Signal;HPM_P1;HPM_P2
2023/03/23 00:00:16;;;;;;;12.07;6.10;;;;;;;;;;6276516;22;20659;-90
2023/03/23 00:03:24;;;;;;;13.73;6.50;;;;;;;;;;6295610;22;20189;-90
2023/03/23 00:06:32;;;;;;;13.70;7.10;;;;;;;;;;6295538;22;20166;-89
2023/03/23 00:09:41;;;;;;;11.43;6.13;;;;;;;;;;6294991;22;20170;-91
2023/03/23 00:12:49;;;;;;;13.87;6.37;;;;;;;;;;6296800;22;20201;-90
2023/03/23 00:15:56;;;;;;;10.13;5.73;;;;;;;;;;6297133;22;20157;-89
2023/03/23 00:19:08;;;;;;;15.85;5.50;;;;;;;;;;6296461;22;20185;-88
2023/03/23 00:22:24;;;;;;;11.98;5.57;;;;;;;;;;6295740;22;20166;-90
2023/03/23 00:25:31;;;;;;;16.33;5.65;;;;;;;;;;6297236;22;20217;-89
2023/03/23 00:28:36;;;;;;;13.38;6.03;;;;;;;;;;6291552;22;20213;-89
2023/03/23 00:31:46;;;;;;;10.07;5.63;;;;;;;;;;6291244;22;20170;-92
2023/03/23 00:34:51;;;;;;;11.50;5.07;;;;;;;;;;6273473;22;20317;-90
2023/03/23 00:37:59;;;;;;;11.37;5.53;;;;;;;;;;6291986;22;20597;-91
2023/03/23 00:41:05;;;;;;;11.83;5.37;;;;;;;;;;6272804;22;20621;-90
2023/03/23 00:44:17;;;;;;;11.53;5.10;;;;;;;;;;6272990;22;20185;-90
2023/03/23 00:47:22;;;;;;;11.40;5.13;;;;;;;;;;6289304;22;20174;-89
2023/03/23 00:50:27;;;;;;;15.37;5.43;;;;;;;;;;6290736;22;20304;-89
2023/03/23 00:53:34;;;;;;;13.07;5.63;;;;;;;;;;6290825;22;20214;-89
2023/03/23 00:56:40;;;;;;;9.70;5.50;;;;;;;;;;6289669;22;20166;-89
2023/03/23 00:59:45;;;;;;;11.40;5.83;;;;;;;;;;6271699;22;20170;-89
2023/03/23 01:02:51;;;;;;;13.83;5.50;;;;;;;;;;6270514;22;20181;-90
2023/03/23 01:05:57;;;;;;;11.17;5.57;;;;;;;;;;6290541;22;20165;-90
2023/03/23 01:09:04;;;;;;;12.80;6.23;;;;;;;;;;6289532;22;20186;-91
2023/03/23 01:12:12;;;;;;;11.73;5.77;;;;;;;;;;6289938;22;20170;-91
2023/03/23 01:15:18;;;;;;;9.93;5.70;;;;;;;;;;6271447;22;20248;-89
2023/03/23 01:18:23;;;;;;;13.03;5.60;;;;;;;;;;6290404;22;20185;-89
2023/03/23 01:22:00;;;;;;;10.93;5.43;;;;;;;;;;6288214;22;20174;-89
2023/03/23 01:25:08;;;;;;;13.57;6.13;;;;;;;;;;6289015;22;20174;-89
2023/03/23 01:28:14;;;;;;;12.30;6.47;;;;;;;;;;6286785;22;20169;-90
2023/03/23 01:31:20;;;;;;;12.27;6.30;;;;;;;;;;6290125;22;20205;-89
2023/03/23 01:34:26;;;;;;;14.47;6.47;;;;;;;;;;6270251;22;20624;-89
2023/03/23 01:37:32;;;;;;;13.27;6.10;;;;;;;;;;6288224;22;20335;-89
2023/03/23 01:40:38;;;;;;;11.90;5.30;;;;;;;;;;6288963;22;20212;-91
2023/03/23 01:44:01;;;;;;;13.83;5.23;;;;;;;;;;6287798;22;20170;-89
2023/03/23 01:47:07;;;;;;;14.47;6.10;;;;;;;;;;6268643;22;20169;-90
2023/03/23 01:50:15;;;;;;;15.57;5.70;;;;;;;;;;6286296;22;20212;-89
2023/03/23 01:53:20;;;;;;;13.43;6.13;;;;;;;;;;6286180;22;20212;-90
2023/03/23 01:56:29;;;;;;;12.53;6.10;;;;;;;;;;6286369;22;20487;-90
2023/03/23 01:59:36;;;;;;;13.50;5.90;;;;;;;;;;6285664;22;20170;-87
2023/03/23 02:06:33;;;;;;;11.17;5.53;;;;;;;;;;6288397;22;20181;-91
2023/03/23 02:09:51;;;;;;;17.03;5.70;;;;;;;;;;6287189;22;20188;-87
2023/03/23 02:12:58;;;;;;;13.67;6.27;;;;;;;;;;6287825;22;20169;-90
2023/03/23 02:16:23;;;;;;;15.93;6.60;;;;;;;;;;6288315;22;20165;-90
2023/03/23 02:19:43;;;;;;;10.77;6.13;;;;;;;;;;6270622;22;20205;-88
2023/03/23 02:23:07;;;;;;;10.80;6.30;;;;;;;;;;6286277;22;20161;-89
2023/03/23 02:26:21;;;;;;;10.37;5.67;;;;;;;;;;6269533;22;20165;-89
2023/03/23 02:29:48;;;;;;;19.13;6.40;;;;;;;;;;6288373;22;20327;-89
2023/03/23 02:33:01;;;;;;;12.10;6.00;;;;;;;;;;6287476;22;20170;-90
2023/03/23 02:36:12;;;;;;;16.33;6.13;;;;;;;;;;6287391;22;20173;-89
2023/03/23 02:39:20;;;;;;;12.20;6.43;;;;;;;;;;6287335;22;20177;-90
2023/03/23 02:42:27;;;;;;;21.20;8.97;;;;;;;;;;6287366;22;20190;-90
2023/03/23 02:45:34;;;;;;;16.90;6.30;;;;;;;;;;6286624;22;20236;-91
2023/03/23 02:48:40;;;;;;;20.93;8.07;;;;;;;;;;6286805;22;20170;-89
2023/03/23 02:51:48;;;;;;;18.27;8.23;;;;;;;;;;6286627;22;20277;-90
2023/03/23 02:54:54;;;;;;;11.27;5.93;;;;;;;;;;6286096;22;20173;-89
2023/03/23 02:58:01;;;;;;;11.87;5.73;;;;;;;;;;6286211;22;20173;-89
2023/03/23 03:01:38;;;;;;;12.93;6.40;;;;;;;;;;6285739;22;20204;-90
2023/03/23 03:04:48;;;;;;;11.30;5.83;;;;;;;;;;6288452;22;20174;-88
2023/03/23 03:08:01;;;;;;;13.70;6.57;;;;;;;;;;6287993;22;20224;-90
2023/03/23 03:11:08;;;;;;;20.90;8.97;;;;;;;;;;6288458;22;20225;-90
2023/03/23 03:14:25;;;;;;;11.50;6.60;;;;;;;;;;6286391;22;20178;-90
2023/03/23 03:17:33;;;;;;;13.10;7.30;;;;;;;;;;6285428;22;20166;-90
2023/03/23 03:20:39;;;;;;;12.07;6.40;;;;;;;;;;6285275;22;20146;-92
2023/03/23 03:23:46;;;;;;;13.07;6.37;;;;;;;;;;6286527;22;20236;-91
2023/03/23 03:26:53;;;;;;;11.33;6.00;;;;;;;;;;6286590;22;20173;-90
2023/03/23 03:30:11;;;;;;;14.63;6.77;;;;;;;;;;6287067;22;20166;-90
2023/03/23 03:33:20;;;;;;;13.43;6.87;;;;;;;;;;6287568;22;20209;-89
2023/03/23 03:36:28;;;;;;;17.03;6.67;;;;;;;;;;6288564;22;20668;-90
2023/03/23 03:39:36;;;;;;;13.83;6.17;;;;;;;;;;6287019;22;20166;-90
2023/03/23 03:42:43;;;;;;;15.03;6.90;;;;;;;;;;6287151;22;20173;-88
2023/03/23 03:45:48;;;;;;;13.73;7.07;;;;;;;;;;6287531;22;20197;-90
2023/03/23 03:48:53;;;;;;;16.33;7.37;;;;;;;;;;6287317;22;20648;-90
2023/03/23 03:51:59;;;;;;;17.83;7.47;;;;;;;;;;6287173;22;20173;-90
2023/03/23 03:55:16;;;;;;;15.50;6.40;;;;;;;;;;6290517;22;20170;-90
2023/03/23 03:58:24;;;;;;;17.23;7.10;;;;;;;;;;6289013;22;20248;-92
2023/03/23 04:01:43;;;;;;;12.10;6.50;;;;;;;;;;6287907;22;20177;-90
2023/03/23 04:04:49;;;;;;;12.10;6.13;;;;;;;;;;6288918;22;20182;-89
2023/03/23 04:08:01;;;;;;;12.33;6.67;;;;;;;;;;6288666;22;20214;-89
2023/03/23 04:11:11;;;;;;;19.43;6.57;;;;;;;;;;6289336;22;20169;-89
2023/03/23 04:14:18;;;;;;;14.67;6.03;;;;;;;;;;6288023;22;20170;-89
2023/03/23 04:17:25;;;;;;;11.27;6.03;;;;;;;;;;6288096;22;20245;-89
2023/03/23 04:20:37;;;;;;;14.57;6.27;;;;;;;;;;6288474;22;20166;-91
2023/03/23 04:23:43;;;;;;;15.73;6.30;;;;;;;;;;6288964;22;20244;-89
2023/03/23 04:26:51;;;;;;;11.23;6.03;;;;;;;;;;6285244;22;20285;-89
2023/03/23 04:30:04;;;;;;;14.03;6.00;;;;;;;;;;6284591;22;20170;-89
2023/03/23 04:33:24;;;;;;;11.60;5.97;;;;;;;;;;6267864;22;20174;-89
2023/03/23 04:36:33;;;;;;;12.73;6.87;;;;;;;;;;6285141;22;20171;-91
2023/03/23 04:39:45;;;;;;;12.50;6.30;;;;;;;;;;6286603;22;20178;-90
2023/03/23 04:42:57;;;;;;;10.67;5.57;;;;;;;;;;6269539;22;20190;-89
2023/03/23 04:46:11;;;;;;;10.83;6.20;;;;;;;;;;6289020;22;20196;-90
2023/03/23 04:49:23;;;;;;;15.83;6.40;;;;;;;;;;6288312;22;20173;-90
2023/03/23 04:52:34;;;;;;;13.73;6.20;;;;;;;;;;6288215;22;20169;-90
2023/03/23 04:55:42;;;;;;;13.60;6.20;;;;;;;;;;6287414;22;20525;-90
2023/03/23 04:58:53;;;;;;;17.13;6.90;;;;;;;;;;6286503;22;20169;-90
2023/03/23 05:02:12;;;;;;;16.00;7.03;;;;;;;;;;6286489;22;20266;-90
2023/03/23 05:05:18;;;;;;;13.57;6.27;;;;;;;;;;6287833;22;20254;-89
2023/03/23 05:08:24;;;;;;;15.10;6.20;;;;;;;;;;6287289;22;20173;-90
2023/03/23 05:11:30;;;;;;;12.33;6.30;;;;;;;;;;6287733;22;20169;-90
2023/03/23 05:14:41;;;;;;;10.73;5.97;;;;;;;;;;6287465;22;20177;-90
2023/03/23 05:17:49;;;;;;;12.27;6.10;;;;;;;;;;6287503;22;20169;-89
2023/03/23 05:21:01;;;;;;;20.43;7.10;;;;;;;;;;6288465;22;20613;-91
2023/03/23 05:24:07;;;;;;;14.73;6.07;;;;;;;;;;6271349;22;20243;-91
2023/03/23 05:27:14;;;;;;;10.57;6.27;;;;;;;;;;6288039;22;20230;-90
2023/03/23 05:30:26;;;;;;;14.57;6.27;;;;;;;;;;6289789;22;20226;-89
2023/03/23 05:33:32;;;;;;;15.60;7.10;;;;;;;;;;6288587;22;20545;-90
2023/03/23 05:36:40;;;;;;;14.17;6.03;;;;;;;;;;6292490;22;20205;-92
2023/03/23 05:40:06;;;;;;;12.53;6.67;;;;;;;;;;6289089;22;20170;-89
2023/03/23 05:43:22;;;;;;;15.03;6.37;;;;;;;;;;6288887;22;20215;-89
2023/03/23 05:46:47;;;;;;;16.73;6.90;;;;;;;;;;6287602;22;20201;-90
2023/03/23 05:49:53;;;;;;;15.07;7.37;;;;;;;;;;6290547;22;20234;-90
2023/03/23 05:52:58;;;;;;;15.10;7.43;;;;;;;;;;6288950;22;20185;-91
2023/03/23 05:56:06;;;;;;;16.90;7.67;;;;;;;;;;6287142;22;20277;-88
2023/03/23 05:59:28;;;;;;;17.53;7.10;;;;;;;;;;6287811;22;20175;-91
2023/03/23 06:02:43;;;;;;;15.60;7.57;;;;;;;;;;6285553;22;20623;-91
2023/03/23 06:05:52;;;;;;;16.63;7.33;;;;;;;;;;6270679;22;20316;-90
2023/03/23 06:09:00;;;;;;;15.33;7.10;;;;;;;;;;6287191;22;20174;-92
2023/03/23 06:12:20;;;;;;;18.33;7.23;;;;;;;;;;6288451;22;20170;-90
2023/03/23 06:15:57;;;;;;;18.67;7.60;;;;;;;;;;6289939;22;20173;-90
2023/03/23 06:19:36;;;;;;;14.37;6.90;;;;;;;;;;6289294;22;20170;-90
2023/03/23 06:22:51;;;;;;;15.63;7.60;;;;;;;;;;6288946;22;20169;-89
2023/03/23 06:26:06;;;;;;;16.80;6.30;;;;;;;;;;6287715;22;20189;-92
2023/03/23 06:29:12;;;;;;;20.10;6.70;;;;;;;;;;6288696;22;20166;-91
2023/03/23 06:32:26;;;;;;;12.03;6.10;;;;;;;;;;6287977;22;20170;-91
2023/03/23 06:35:34;;;;;;;12.23;6.30;;;;;;;;;;6271574;22;20205;-89
2023/03/23 06:38:55;;;;;;;13.90;6.80;;;;;;;;;;6289214;22;20576;-90
2023/03/23 06:42:11;;;;;;;16.80;6.53;;;;;;;;;;6289193;22;20173;-90
2023/03/23 06:45:19;;;;;;;12.00;6.47;;;;;;;;;;6288463;22;20190;-90
2023/03/23 06:48:28;;;;;;;17.10;6.05;;;;;;;;;;6289102;22;20150;-90
2023/03/23 06:51:35;;;;;;;13.88;5.45;;;;;;;;;;6289623;22;20185;-91
2023/03/23 06:54:39;;;;;;;15.95;6.20;;;;;;;;;;6289584;22;20172;-90
2023/03/23 06:57:46;;;;;;;15.95;6.68;;;;;;;;;;6289513;22;20349;-90
2023/03/23 07:00:56;;;;;;;15.48;6.65;;;;;;;;;;6288962;22;20245;-91
2023/03/23 07:04:02;;;;;;;23.23;6.00;;;;;;;;;;6288308;22;20170;-90
2023/03/23 07:07:30;;;;;;;10.68;5.65;;;;;;;;;;6288580;22;20166;-92
2023/03/23 07:10:56;;;;;;;20.52;9.50;;;;;;;;;;6290126;22;20166;-90
2023/03/23 07:14:07;;;;;;;22.73;9.98;;;;;;;;;;6284788;22;20209;-89
2023/03/23 07:17:12;;;;;;;11.15;6.07;;;;;;;;;;6286773;22;20170;-92
2023/03/23 07:20:26;;;;;;;12.77;5.70;;;;;;;;;;6287931;22;20162;-90
2023/03/23 07:23:34;;;;;;;10.93;6.18;;;;;;;;;;6287829;22;20599;-89
2023/03/23 07:26:42;;;;;;;19.92;6.28;;;;;;;;;;6290441;22;20534;-89
2023/03/23 07:29:48;;;;;;;11.18;5.40;;;;;;;;;;6290008;22;20165;-90
2023/03/23 07:33:01;;;;;;;14.57;5.40;;;;;;;;;;6293498;22;20252;-91
2023/03/23 07:36:07;;;;;;;16.42;6.95;;;;;;;;;;6276309;22;20621;-90
2023/03/23 07:39:15;;;;;;;18.58;7.20;;;;;;;;;;6290200;22;20181;-90
2023/03/23 07:42:21;;;;;;;13.50;7.10;;;;;;;;;;6287829;22;20169;-88
2023/03/23 07:45:33;;;;;;;22.15;8.02;;;;;;;;;;6289727;22;20267;-90
2023/03/23 07:48:38;;;;;;;18.13;7.35;;;;;;;;;;6289676;22;20612;-91
2023/03/23 07:51:45;;;;;;;13.15;6.78;;;;;;;;;;6290732;22;20169;-91
2023/03/23 07:54:53;;;;;;;20.67;7.03;;;;;;;;;;6289581;22;20205;-92
2023/03/23 07:58:09;;;;;;;17.02;7.40;;;;;;;;;;6290327;22;20222;-90
2023/03/23 08:01:16;;;;;;;18.42;6.80;;;;;;;;;;6273261;22;20173;-89
2023/03/23 08:04:36;;;;;;;16.00;6.78;;;;;;;;;;6293002;22;20186;-91
2023/03/23 08:08:09;;;;;;;11.55;6.07;;;;;;;;;;6290191;22;20165;-89
2023/03/23 08:11:52;;;;;;;18.83;6.45;;;;;;;;;;6295326;22;20162;-90
2023/03/23 08:15:18;;;;;;;17.38;5.47;;;;;;;;;;6291611;22;20169;-89
2023/03/23 08:18:42;;;;;;;20.17;6.32;;;;;;;;;;6295371;22;20162;-90
2023/03/23 08:22:02;;;;;;;9.50;4.78;;;;;;;;;;6295039;22;20174;-91
2023/03/23 08:25:36;;;;;;;17.63;5.68;;;;;;;;;;6293484;22;20162;-89
2023/03/23 08:29:00;;;;;;;9.20;4.95;;;;;;;;;;6294426;22;20158;-89
2023/03/23 08:32:27;;;;;;;12.88;5.18;;;;;;;;;;6294655;22;20218;-90
2023/03/23 08:39:31;;;;;;;9.23;4.90;;;;;;;;;;6296763;22;20170;-90
2023/03/23 08:42:50;;;;;;;18.20;5.15;;;;;;;;;;6297253;22;20166;-90
2023/03/23 08:46:19;;;;;;;9.48;5.38;;;;;;;;;;6296139;22;20304;-90
2023/03/23 08:49:34;;;;;;;11.18;4.63;;;;;;;;;;6297654;22;20233;-91
2023/03/23 08:53:07;;;;;;;10.60;4.93;;;;;;;;;;6295340;22;20165;-94
2023/03/23 08:56:41;;;;;;;24.60;5.25;;;;;;;;;;6299012;22;20174;-90
2023/03/23 08:59:47;;;;;;;9.57;4.25;;;;;;;;;;6292810;22;20178;-92
2023/03/23 09:03:17;;;;;;;9.73;4.40;;;;;;;;;;6275806;22;20166;-91
2023/03/23 09:06:40;;;;;;;15.50;5.22;;;;;;;;;;6296939;22;20246;-92
2023/03/23 09:09:46;;;;;;;19.70;5.97;;;;;;;;;;6293836;22;20169;-91
2023/03/23 09:12:54;;;;;;;20.50;5.18;;;;;;;;;;6294367;22;20185;-91
2023/03/23 09:16:15;;;;;;;8.52;4.38;;;;;;;;;;6277737;22;20185;-94
2023/03/23 09:19:22;;;;;;;10.55;4.18;;;;;;;;;;6297170;22;20178;-90
2023/03/23 09:22:49;;;;;;;12.13;5.05;;;;;;;;;;6296273;22;20196;-91
2023/03/23 09:25:54;;;;;;;10.77;4.65;;;;;;;;;;6295422;22;20177;-91
2023/03/23 09:29:00;;;;;;;12.52;5.68;;;;;;;;;;6294172;22;20242;-90
2023/03/23 09:32:05;;;;;;;13.20;5.38;;;;;;;;;;6294178;22;20270;-91
2023/03/23 09:35:12;;;;;;;9.15;4.85;;;;;;;;;;6276453;22;20166;-91
2023/03/23 09:38:19;;;;;;;10.30;4.43;;;;;;;;;;6292596;22;20169;-91
2023/03/23 09:41:44;;;;;;;11.27;4.60;;;;;;;;;;6294928;22;20173;-93
2023/03/23 09:44:58;;;;;;;16.05;4.95;;;;;;;;;;6293469;22;20244;-91
2023/03/23 09:48:15;;;;;;;10.05;4.40;;;;;;;;;;6294849;22;20181;-92
2023/03/23 09:51:28;;;;;;;22.15;6.45;;;;;;;;;;6294435;22;20620;-91
2023/03/23 09:54:36;;;;;;;29.48;6.32;;;;;;;;;;6294759;22;20165;-92
2023/03/23 09:57:45;;;;;;;19.35;5.47;;;;;;;;;;6294196;22;20162;-91
2023/03/23 10:01:00;;;;;;;10.68;5.55;;;;;;;;;;6294588;22;20231;-91
2023/03/23 10:04:09;;;;;;;39.70;6.75;;;;;;;;;;6274588;22;20238;-92
2023/03/23 10:07:16;;;;;;;20.23;7.15;;;;;;;;;;6295563;22;20173;-92
2023/03/23 10:10:28;;;;;;;23.38;6.03;;;;;;;;;;6291607;22;20162;-92
2023/03/23 10:13:48;;;;;;;10.98;4.95;;;;;;;;;;6274070;22;20174;-92
2023/03/23 10:16:59;;;;;;;14.98;5.05;;;;;;;;;;6274797;22;20169;-91
2023/03/23 10:24:27;;;;;;;8.60;5.75;;;;;;;;;;6294083;22;20138;-92
2023/03/23 10:27:35;;;;;;;11.00;5.00;;;;;;;;;;6292351;22;20188;-90
2023/03/23 10:30:43;;;;;;;8.15;4.93;;;;;;;;;;6276226;22;20663;-92
2023/03/23 10:33:50;;;;;;;8.73;4.95;;;;;;;;;;6294598;22;20201;-90
2023/03/23 10:37:00;;;;;;;12.35;5.30;;;;;;;;;;6289524;22;20644;-90
2023/03/23 10:40:10;;;;;;;11.07;5.32;;;;;;;;;;6290170;22;20165;-91
2023/03/23 10:43:17;;;;;;;14.38;6.15;;;;;;;;;;6275397;22;20146;-92
2023/03/23 10:46:29;;;;;;;8.93;5.43;;;;;;;;;;6275955;22;20169;-91
2023/03/23 10:49:38;;;;;;;11.63;5.60;;;;;;;;;;6292612;22;20619;-91
2023/03/23 10:52:45;;;;;;;12.15;5.32;;;;;;;;;;6275159;22;20208;-90
2023/03/23 10:55:52;;;;;;;13.02;6.60;;;;;;;;;;6273827;22;20180;-91
2023/03/23 10:58:59;;;;;;;10.75;5.07;;;;;;;;;;6275231;22;20169;-89
2023/03/23 11:02:12;;;;;;;8.55;4.85;;;;;;;;;;6275072;22;20502;-92
2023/03/23 11:05:22;;;;;;;10.30;5.55;;;;;;;;;;6274481;22;20165;-90
2023/03/23 11:08:31;;;;;;;9.73;5.75;;;;;;;;;;6292959;22;20156;-91
2023/03/23 11:11:42;;;;;;;11.45;5.22;;;;;;;;;;6292375;22;20224;-90
2023/03/23 11:15:11;;;;;;;7.72;4.63;;;;;;;;;;6292948;22;20169;-90
2023/03/23 11:18:20;;;;;;;7.80;4.05;;;;;;;;;;6292937;22;20315;-90
2023/03/23 11:21:37;;;;;;;9.60;4.28;;;;;;;;;;6292186;22;20158;-89
2023/03/23 11:24:43;;;;;;;7.97;4.20;;;;;;;;;;6294168;22;20213;-91
2023/03/23 11:27:48;;;;;;;14.50;4.20;;;;;;;;;;6292524;22;20177;-90
2023/03/23 11:30:57;;;;;;;7.90;4.10;;;;;;;;;;6292661;22;20219;-91
2023/03/23 11:34:04;;;;;;;18.85;4.47;;;;;;;;;;6292167;22;20200;-91
2023/03/23 11:37:12;;;;;;;8.80;4.10;;;;;;;;;;6293046;22;20192;-90
2023/03/23 11:40:19;;;;;;;7.20;3.70;;;;;;;;;;6273453;22;20182;-91
2023/03/23 11:43:26;;;;;;;13.07;4.10;;;;;;;;;;6293114;22;20191;-92
2023/03/23 11:46:36;;;;;;;11.23;4.07;;;;;;;;;;6291442;22;20238;-91
2023/03/23 11:49:44;;;;;;;7.25;3.17;;;;;;;;;;6290814;22;20161;-89
2023/03/23 11:53:07;;;;;;;6.97;3.25;;;;;;;;;;6293700;22;20173;-91
2023/03/23 11:56:21;;;;;;;10.88;3.92;;;;;;;;;;6293048;22;20217;-93
2023/03/23 11:59:33;;;;;;;7.03;3.92;;;;;;;;;;6274393;22;20166;-91
2023/03/23 12:03:09;;;;;;;15.65;3.58;;;;;;;;;;6290162;22;20196;-91
2023/03/23 12:06:23;;;;;;;14.40;3.58;;;;;;;;;;6294179;22;20223;-90
2023/03/23 12:09:34;;;;;;;3.80;1.95;;;;;;;;;;6295056;22;20165;-92
2023/03/23 12:12:52;;;;;;;5.80;2.08;;;;;;;;;;6275363;22;20173;-89
2023/03/23 12:16:03;;;;;;;3.25;1.90;;;;;;;;;;6274929;22;20216;-88
2023/03/23 12:19:13;;;;;;;4.82;2.10;;;;;;;;;;6293575;22;20185;-90
2023/03/23 12:22:41;;;;;;;3.88;1.90;;;;;;;;;;6292654;22;20167;-88
2023/03/23 12:26:14;;;;;;;7.93;2.20;;;;;;;;;;6290650;22;20220;-89
2023/03/23 12:29:35;;;;;;;3.25;1.90;;;;;;;;;;6292053;22;20229;-91
2023/03/23 12:32:45;;;;;;;9.90;1.98;;;;;;;;;;6290438;22;20756;-88
2023/03/23 12:35:59;;;;;;;5.45;2.00;;;;;;;;;;6292430;22;20170;-90
2023/03/23 12:39:13;;;;;;;3.45;1.80;;;;;;;;;;6291341;22;20165;-89
2023/03/23 12:42:23;;;;;;;5.72;2.05;;;;;;;;;;6291671;22;20165;-89
2023/03/23 12:45:43;;;;;;;6.68;2.00;;;;;;;;;;6292059;22;20173;-89
2023/03/23 12:48:51;;;;;;;5.53;2.03;;;;;;;;;;6290547;22;20253;-90
2023/03/23 12:52:01;;;;;;;7.72;2.28;;;;;;;;;;6275825;22;20157;-91
2023/03/23 12:55:11;;;;;;;11.82;2.17;;;;;;;;;;6293466;22;20157;-91
2023/03/23 12:58:18;;;;;;;10.55;2.20;;;;;;;;;;6292186;22;20193;-91
2023/03/23 13:01:26;;;;;;;4.18;1.80;;;;;;;;;;6292932;22;20292;-92
2023/03/23 13:04:34;;;;;;;7.35;2.78;;;;;;;;;;6276801;22;20162;-89
2023/03/23 13:07:41;;;;;;;5.13;1.92;;;;;;;;;;6291265;22;20173;-89
2023/03/23 13:10:49;;;;;;;10.98;2.50;;;;;;;;;;6274378;22;20224;-88
2023/03/23 13:13:56;;;;;;;6.22;2.38;;;;;;;;;;6272399;22;20190;-90
2023/03/23 13:17:07;;;;;;;5.75;2.95;;;;;;;;;;6290733;22;20194;-89
2023/03/23 13:20:28;;;;;;;4.93;2.20;;;;;;;;;;6274414;22;20273;-92
2023/03/23 13:23:36;;;;;;;10.35;3.08;;;;;;;;;;6292221;22;20174;-91
2023/03/23 13:26:43;;;;;;;6.35;2.90;;;;;;;;;;6290735;22;20170;-93
2023/03/23 13:29:49;;;;;;;7.57;3.17;;;;;;;;;;6292663;22;20157;-92
2023/03/23 13:33:03;;;;;;;8.25;3.00;;;;;;;;;;6291892;22;20193;-94
2023/03/23 13:36:13;;;;;;;7.47;2.70;;;;;;;;;;6290518;22;20217;-91
2023/03/23 13:39:20;;;;;;;6.93;2.78;;;;;;;;;;6290656;22;20161;-92
2023/03/23 13:42:29;;;;;;;5.60;2.20;;;;;;;;;;6288368;22;20236;-92
2023/03/23 13:45:39;;;;;;;6.03;2.15;;;;;;;;;;6290612;22;20236;-90
2023/03/23 13:48:46;;;;;;;4.50;2.60;;;;;;;;;;6290718;22;20502;-90
2023/03/23 13:52:02;;;;;;;4.60;2.13;;;;;;;;;;6269372;22;20208;-92
2023/03/23 13:55:22;;;;;;;8.82;2.35;;;;;;;;;;6291660;22;20213;-90
2023/03/23 13:58:31;;;;;;;5.70;2.38;;;;;;;;;;6291262;22;20209;-92
2023/03/23 14:01:39;;;;;;;6.78;2.38;;;;;;;;;;6273525;22;20174;-91
2023/03/23 14:04:46;;;;;;;4.43;2.05;;;;;;;;;;6272675;22;20628;-91
2023/03/23 14:08:03;;;;;;;6.00;2.20;;;;;;;;;;6292892;22;20197;-91
2023/03/23 14:11:13;;;;;;;5.97;2.58;;;;;;;;;;6288663;22;20166;-91
2023/03/23 14:14:25;;;;;;;6.80;2.38;;;;;;;;;;6288327;22;20231;-92
2023/03/23 14:17:32;;;;;;;8.07;2.70;;;;;;;;;;6272269;22;20189;-91
2023/03/23 14:20:39;;;;;;;4.07;2.10;;;;;;;;;;6289028;22;20236;-91
2023/03/23 14:23:45;;;;;;;6.55;2.53;;;;;;;;;;6288889;22;20173;-92
2023/03/23 14:26:52;;;;;;;4.03;2.42;;;;;;;;;;6290134;22;20169;-91
2023/03/23 14:30:04;;;;;;;5.43;2.53;;;;;;;;;;6292072;22;20173;-95
2023/03/23 14:33:13;;;;;;;13.80;2.72;;;;;;;;;;6291798;22;20193;-90
2023/03/23 14:36:24;;;;;;;6.93;2.40;;;;;;;;;;6291427;22;20185;-91
2023/03/23 14:39:30;;;;;;;7.72;2.58;;;;;;;;;;6290328;22;20177;-92
2023/03/23 14:42:37;;;;;;;7.45;2.50;;;;;;;;;;6290219;22;20286;-92
2023/03/23 14:45:43;;;;;;;8.68;2.70;;;;;;;;;;6291383;22;20165;-92
2023/03/23 14:48:51;;;;;;;8.70;2.70;;;;;;;;;;6292512;22;20169;-91
2023/03/23 14:51:56;;;;;;;7.60;2.80;;;;;;;;;;6291691;22;20169;-92
2023/03/23 14:55:12;;;;;;;5.63;2.40;;;;;;;;;;6293072;22;20189;-94
2023/03/23 14:58:18;;;;;;;6.43;2.30;;;;;;;;;;6289371;22;20227;-90
2023/03/23 15:01:34;;;;;;;8.57;2.78;;;;;;;;;;6275901;22;20233;-92
2023/03/23 15:04:43;;;;;;;11.68;3.20;;;;;;;;;;6292909;22;20203;-93
2023/03/23 15:07:52;;;;;;;8.88;2.85;;;;;;;;;;6294487;22;20170;-92
2023/03/23 15:11:01;;;;;;;9.15;2.67;;;;;;;;;;6277345;22;20165;-91
2023/03/23 15:14:20;;;;;;;8.02;2.45;;;;;;;;;;6292872;22;20165;-90
2023/03/23 15:17:26;;;;;;;6.75;1.98;;;;;;;;;;6293147;22;20186;-92
2023/03/23 15:24:22;;;;;;;5.75;1.77;;;;;;;;;;6275392;22;20162;-90
2023/03/23 15:27:34;;;;;;;3.63;1.77;;;;;;;;;;6292219;22;20238;-90
2023/03/23 15:30:48;;;;;;;8.82;1.73;;;;;;;;;;6291769;22;20231;-90
2023/03/23 15:33:57;;;;;;;2.92;1.60;;;;;;;;;;6293519;22;20185;-94
2023/03/23 15:37:03;;;;;;;6.70;2.08;;;;;;;;;;6293681;22;20162;-91
2023/03/23 15:40:22;;;;;;;8.65;2.05;;;;;;;;;;6293710;22;20616;-90
2023/03/23 15:43:29;;;;;;;3.75;1.90;;;;;;;;;;6273893;22;20170;-91
2023/03/23 15:46:35;;;;;;;6.53;2.08;;;;;;;;;;6294098;22;20182;-93
2023/03/23 15:49:41;;;;;;;4.28;2.53;;;;;;;;;;6276358;22;20174;-94
2023/03/23 15:52:51;;;;;;;9.38;1.90;;;;;;;;;;6275138;22;20166;-93
2023/03/23 15:56:00;;;;;;;4.35;1.67;;;;;;;;;;6292264;22;20209;-93
2023/03/23 15:59:06;;;;;;;5.18;1.90;;;;;;;;;;6290682;22;20272;-89
2023/03/23 16:02:17;;;;;;;6.40;1.73;;;;;;;;;;6291990;22;20158;-91
2023/03/23 16:05:23;;;;;;;5.10;1.73;;;;;;;;;;6289725;22;20169;-91
2023/03/23 16:08:29;;;;;;;16.98;2.38;;;;;;;;;;6292987;22;20165;-92
2023/03/23 16:11:37;;;;;;;25.17;3.92;;;;;;;;;;6293079;22;20577;-93
2023/03/23 16:15:21;;;;;;;7.28;2.03;;;;;;;;;;6289987;22;20208;-91
2023/03/23 16:18:27;;;;;;;5.82;2.83;;;;;;;;;;6273632;22;20193;-92
2023/03/23 16:21:32;;;;;;;7.68;2.25;;;;;;;;;;6292023;22;20269;-93
2023/03/23 16:24:38;;;;;;;7.68;2.00;;;;;;;;;;6291951;22;20169;-91
2023/03/23 16:27:49;;;;;;;5.85;1.95;;;;;;;;;;6289087;22;20208;-91
2023/03/23 16:30:55;;;;;;;7.90;2.08;;;;;;;;;;6289730;22;20149;-90
2023/03/23 16:34:02;;;;;;;9.23;2.10;;;;;;;;;;6293421;22;20216;-92
2023/03/23 16:37:10;;;;;;;9.00;2.78;;;;;;;;;;6292491;22;20161;-92
2023/03/23 16:40:17;;;;;;;9.13;2.30;;;;;;;;;;6275719;22;20162;-90
2023/03/23 16:43:24;;;;;;;28.75;3.42;;;;;;;;;;6296043;22;20157;-89
2023/03/23 16:46:31;;;;;;;23.27;2.60;;;;;;;;;;6295370;22;20161;-92
2023/03/23 16:49:41;;;;;;;14.35;2.90;;;;;;;;;;6295747;22;20242;-92
2023/03/23 16:52:47;;;;;;;9.32;2.55;;;;;;;;;;6278519;22;20602;-91
2023/03/23 16:55:54;;;;;;;9.75;2.80;;;;;;;;;;6294173;22;20217;-93
2023/03/23 16:59:00;;;;;;;12.63;2.20;;;;;;;;;;6273240;22;20200;-93
2023/03/23 17:02:08;;;;;;;16.27;2.83;;;;;;;;;;6292160;22;20217;-91
2023/03/23 17:05:14;;;;;;;12.75;3.78;;;;;;;;;;6293114;22;20177;-90
2023/03/23 17:08:20;;;;;;;13.45;4.47;;;;;;;;;;6292721;22;20701;-91
2023/03/23 17:11:26;;;;;;;11.55;4.75;;;;;;;;;;6290239;22;20243;-91
2023/03/23 17:14:59;;;;;;;13.23;4.25;;;;;;;;;;6289016;22;20165;-90
2023/03/23 17:18:08;;;;;;;11.70;4.05;;;;;;;;;;6292854;22;20194;-93
2023/03/23 17:21:14;;;;;;;13.63;4.35;;;;;;;;;;6293719;22;20165;-92
2023/03/23 17:24:20;;;;;;;15.95;4.88;;;;;;;;;;6290496;22;20170;-94
2023/03/23 17:27:26;;;;;;;12.85;5.45;;;;;;;;;;6254440;22;20165;-90
2023/03/23 17:30:31;;;;;;;32.85;12.02;;;;;;;;;;6292985;22;20209;-90
2023/03/23 17:33:39;;;;;;;28.95;13.02;;;;;;;;;;6275141;22;20185;-91
2023/03/23 17:36:45;;;;;;;29.23;13.70;;;;;;;;;;6274428;22;20165;-91
2023/03/23 17:39:50;;;;;;;33.70;15.68;;;;;;;;;;6273238;22;20216;-90
2023/03/23 17:42:55;;;;;;;26.88;11.38;;;;;;;;;;6271849;22;20170;-91
2023/03/23 17:46:01;;;;;;;29.33;12.65;;;;;;;;;;6271743;22;20166;-92
2023/03/23 17:49:07;;;;;;;17.20;7.60;;;;;;;;;;6271682;22;20182;-90
2023/03/23 17:52:13;;;;;;;17.95;7.03;;;;;;;;;;6290146;22;20505;-92
2023/03/23 17:55:18;;;;;;;28.48;11.63;;;;;;;;;;6290454;22;20189;-91
2023/03/23 17:58:24;;;;;;;21.52;9.30;;;;;;;;;;6272887;22;20176;-92
2023/03/23 18:01:31;;;;;;;16.48;6.53;;;;;;;;;;6270219;22;20162;-91
2023/03/23 18:04:45;;;;;;;18.63;7.10;;;;;;;;;;6290779;22;20169;-91
2023/03/23 18:07:50;;;;;;;12.85;4.85;;;;;;;;;;6289379;22;20170;-93
2023/03/23 18:10:56;;;;;;;11.80;5.72;;;;;;;;;;6286955;22;20293;-90
2023/03/23 18:14:03;;;;;;;13.85;5.60;;;;;;;;;;6288320;22;20157;-92
2023/03/23 18:17:09;;;;;;;11.93;5.05;;;;;;;;;;6290073;22;20193;-91
2023/03/23 18:20:16;;;;;;;13.63;4.88;;;;;;;;;;6271089;22;20197;-91
2023/03/23 18:23:22;;;;;;;21.55;9.05;;;;;;;;;;6290175;22;20244;-91
2023/03/23 18:26:28;;;;;;;15.38;6.85;;;;;;;;;;6289335;22;20208;-92
2023/03/23 18:29:33;;;;;;;14.20;4.70;;;;;;;;;;6268618;22;20169;-90
2023/03/23 18:32:39;;;;;;;15.05;5.30;;;;;;;;;;6285349;22;20185;-90
2023/03/23 18:35:46;;;;;;;10.43;4.78;;;;;;;;;;6287449;22;20166;-91
2023/03/23 18:38:51;;;;;;;9.80;4.45;;;;;;;;;;6286549;22;20212;-90
2023/03/23 18:41:56;;;;;;;10.90;4.78;;;;;;;;;;6286034;22;20621;-91
2023/03/23 18:45:01;;;;;;;10.43;4.68;;;;;;;;;;6287590;22;20173;-92
2023/03/23 18:48:08;;;;;;;14.10;5.20;;;;;;;;;;6288818;22;20182;-89
2023/03/23 18:51:14;;;;;;;11.90;5.90;;;;;;;;;;6287936;22;20149;-92
2023/03/23 18:54:19;;;;;;;13.82;6.50;;;;;;;;;;6269407;22;20172;-90
2023/03/23 18:57:24;;;;;;;18.80;8.20;;;;;;;;;;6270054;22;20169;-91
2023/03/23 19:00:31;;;;;;;14.30;5.97;;;;;;;;;;6286639;22;20193;-90
2023/03/23 19:04:02;;;;;;;14.18;5.05;;;;;;;;;;6288145;22;20519;-90
2023/03/23 19:07:09;;;;;;;12.55;5.38;;;;;;;;;;6285708;22;20162;-90